KHYX

Saginaw County H W Browne Airport

Saginaw, Michigan, USA
METAR KHYX 241955Z AUTO 10007KT 10SM OVC019 02/M01 A3014 RMK AO2
Observed Flight Rules
Feb-24 @ 19:55 UTC (20 minutes ago) Marginal Visual Flight Rules
Wind Visibility Clouds
100° at 7 knots 10 miles
  • Overcast at 1,900' AGL
Temperatures Readings
Current 2°C / 36°F
Dewpoint -1°C / 30°F
Humidity 81%
Altimeter 30.14" Hg
Pressure 1021 hPa
Elevation 183
METAR KHYX 241955Z AUTO 10007KT 10SM OVC019 02/M01 A3014 RMK AO2
Observed Flight Rules
Feb-24 @ 19:55 UTC
(20 minutes ago)
MVFR
Wind Visibility
100° at 7 knots 10 miles
Clouds
  • Overcast at 1,900' AGL
Temperature Dewpoint
2°C / 36°F -1°C / 30°F
Humidity Altimeter Pressure
81% 30.14" Hg 1021 hPa